Time;durP1;ratioP1;P1;durP2;ratioP2;P2;SDS_P1;SDS_P2;PMS_P1;PMS_P2;Temp;Humidity;BMP_temperature;BMP_pressure;BME280_temperature;BME280_humidity;BME280_pressure;Samples;Min_cycle;Max_cycle;Signal;HPM_P1;HPM_P2
2022/11/24 00:01:16;;;;;;;7.73;2.40;;;10.10;99.90;;;;;;5034336;28;20232;-66
2022/11/24 00:03:43;;;;;;;7.33;2.30;;;10.10;99.90;;;;;;5034314;28;20313;-66
2022/11/24 00:06:12;;;;;;;8.73;2.77;;;10.10;99.90;;;;;;5034169;28;20202;-66
2022/11/24 00:08:42;;;;;;;11.07;3.10;;;10.10;99.90;;;;;;5033299;28;20213;-66
2022/11/24 00:11:11;;;;;;;9.07;2.47;;;10.10;99.90;;;;;;5033913;28;20222;-66
2022/11/24 00:13:38;;;;;;;10.20;3.10;;;10.10;99.90;;;;;;5033905;28;20697;-66
2022/11/24 00:16:08;;;;;;;8.13;2.50;;;10.10;99.90;;;;;;5034246;28;20214;-66
2022/11/24 00:18:34;;;;;;;8.13;2.40;;;10.20;99.90;;;;;;5033383;28;20217;-66
2022/11/24 00:21:01;;;;;;;6.83;2.37;;;10.10;99.90;;;;;;5032790;28;20234;-66
2022/11/24 00:23:28;;;;;;;16.30;11.60;;;10.20;99.90;;;;;;5033969;28;20225;-66
2022/11/24 00:26:03;;;;;;;5.53;2.23;;;10.10;99.90;;;;;;5033662;28;20206;-66
2022/11/24 00:28:30;;;;;;;5.50;2.17;;;10.00;99.90;;;;;;5033228;28;20205;-66
2022/11/24 00:30:57;;;;;;;8.70;2.47;;;10.00;99.90;;;;;;5033917;28;20232;-65
2022/11/24 00:33:23;;;;;;;7.17;1.90;;;10.00;99.90;;;;;;5033623;28;20304;-66
2022/11/24 00:35:54;;;;;;;6.03;2.13;;;10.00;99.90;;;;;;5033646;28;20241;-65
2022/11/24 00:38:21;;;;;;;6.60;2.30;;;10.00;99.90;;;;;;5032949;28;20580;-65
2022/11/24 00:40:48;;;;;;;9.73;2.43;;;9.90;99.90;;;;;;5033183;28;20221;-65
2022/11/24 00:43:16;;;;;;;6.27;2.00;;;9.90;99.90;;;;;;5033617;28;20709;-65
2022/11/24 00:45:43;;;;;;;8.73;1.90;;;9.80;99.90;;;;;;5033767;28;20591;-66
2022/11/24 00:48:10;;;;;;;8.87;2.30;;;9.70;99.90;;;;;;5033264;28;20213;-66
2022/11/24 00:50:36;;;;;;;6.90;2.20;;;9.60;99.90;;;;;;5033685;28;20233;-66
2022/11/24 00:53:03;;;;;;;6.03;1.87;;;9.50;99.90;;;;;;5033710;28;20582;-66
2022/11/24 00:55:30;;;;;;;7.50;2.37;;;9.50;99.90;;;;;;5033743;28;20218;-66
2022/11/24 00:57:56;;;;;;;7.47;2.30;;;9.30;99.90;;;;;;5033533;28;20606;-66
2022/11/24 01:00:25;;;;;;;6.80;2.10;;;9.30;99.90;;;;;;5033681;28;20210;-66
2022/11/24 01:02:52;;;;;;;9.00;2.20;;;9.30;99.90;;;;;;5033559;28;20230;-66
2022/11/24 01:05:19;;;;;;;8.33;2.40;;;9.30;99.90;;;;;;5034519;28;20281;-65
2022/11/24 01:07:46;;;;;;;9.73;2.10;;;9.30;99.90;;;;;;5037115;28;20565;-64
2022/11/24 01:10:13;;;;;;;8.73;2.37;;;9.30;99.90;;;;;;5039985;28;20245;-65
2022/11/24 01:12:39;;;;;;;6.27;2.10;;;9.20;99.90;;;;;;5038964;28;20226;-65
2022/11/24 01:15:07;;;;;;;4.37;1.80;;;9.20;99.90;;;;;;5034517;28;20210;-66
2022/11/24 01:17:36;;;;;;;8.23;2.70;;;9.20;99.90;;;;;;5034347;28;20206;-66
2022/11/24 01:20:03;;;;;;;11.13;2.60;;;9.10;99.90;;;;;;5033216;28;20213;-66
2022/11/24 01:22:31;;;;;;;10.73;2.70;;;9.10;99.90;;;;;;5069287;22;20637;-56
2022/11/24 01:24:58;;;;;;;7.27;2.20;;;9.20;99.90;;;;;;5068871;28;20316;-57
2022/11/24 01:27:24;;;;;;;8.80;2.13;;;9.30;99.90;;;;;;5072979;28;20205;-57
2022/11/24 01:29:51;;;;;;;8.27;1.97;;;9.50;99.90;;;;;;5072981;28;20270;-57
2022/11/24 01:32:18;;;;;;;10.30;2.30;;;9.60;99.90;;;;;;5072629;28;20228;-57
2022/11/24 01:34:46;;;;;;;9.50;1.93;;;9.70;99.90;;;;;;5072601;28;20200;-56
2022/11/24 01:37:13;;;;;;;6.57;1.90;;;9.70;99.90;;;;;;5073007;28;20201;-56
2022/11/24 01:39:40;;;;;;;6.97;2.57;;;9.80;99.90;;;;;;5072473;28;20212;-56
2022/11/24 01:42:08;;;;;;;10.93;2.00;;;9.80;99.90;;;;;;5073025;28;20264;-56
2022/11/24 01:44:35;;;;;;;9.00;2.20;;;9.90;99.90;;;;;;5072527;28;20229;-57
2022/11/24 01:47:06;;;;;;;8.03;2.00;;;9.80;99.90;;;;;;5072615;28;20295;-57
2022/11/24 01:49:39;;;;;;;10.57;2.27;;;9.80;99.90;;;;;;5072178;28;20676;-57
2022/11/24 01:52:14;;;;;;;7.20;2.40;;;9.70;99.90;;;;;;5072808;28;20225;-56
2022/11/24 01:54:45;;;;;;;7.20;2.17;;;9.70;99.90;;;;;;5072713;28;20204;-57
2022/11/24 01:57:16;;;;;;;5.70;1.90;;;9.70;99.90;;;;;;5072596;28;20292;-56
2022/11/24 01:59:45;;;;;;;9.17;1.97;;;9.70;99.90;;;;;;5072137;28;20204;-56
2022/11/24 02:02:12;;;;;;;6.27;2.13;;;9.70;99.90;;;;;;5072494;28;20321;-56
2022/11/24 02:04:40;;;;;;;5.50;1.93;;;9.60;99.90;;;;;;5072687;28;20224;-57
2022/11/24 02:07:09;;;;;;;9.03;2.10;;;9.60;99.90;;;;;;5072445;28;20676;-57
2022/11/24 02:09:43;;;;;;;7.50;2.20;;;9.60;99.90;;;;;;5072157;28;20209;-57
2022/11/24 02:12:10;;;;;;;12.13;3.43;;;9.70;99.90;;;;;;5072635;28;20227;-57
2022/11/24 02:14:39;;;;;;;8.43;2.90;;;9.70;99.90;;;;;;5072507;28;20733;-57
2022/11/24 02:17:07;;;;;;;10.40;2.43;;;9.70;99.90;;;;;;5072629;28;20208;-56
2022/11/24 02:19:43;;;;;;;7.97;2.27;;;9.70;99.90;;;;;;5072231;28;20252;-57
2022/11/24 02:22:16;;;;;;;6.60;1.87;;;9.80;99.90;;;;;;5072185;28;20696;-56
2022/11/24 02:24:49;;;;;;;6.90;1.97;;;9.80;99.90;;;;;;5072134;28;20260;-57
2022/11/24 02:27:19;;;;;;;13.70;2.50;;;9.90;99.90;;;;;;5072464;28;20208;-57
2022/11/24 02:29:46;;;;;;;6.73;2.00;;;9.90;99.90;;;;;;5071827;28;20563;-57
2022/11/24 02:32:14;;;;;;;6.63;1.97;;;10.00;99.90;;;;;;5072604;28;20221;-57
2022/11/24 02:34:41;;;;;;;6.03;1.70;;;10.00;99.90;;;;;;5072256;28;20299;-57
2022/11/24 02:37:08;;;;;;;5.87;1.43;;;10.00;99.90;;;;;;5072490;28;20209;-57
2022/11/24 02:39:35;;;;;;;7.10;2.10;;;9.90;99.90;;;;;;5071847;28;20211;-57
2022/11/24 02:42:06;;;;;;;6.87;1.63;;;9.80;99.90;;;;;;5072595;28;20747;-57
2022/11/24 02:44:37;;;;;;;7.73;1.80;;;9.80;99.90;;;;;;5074441;28;20308;-57
2022/11/24 02:47:07;;;;;;;5.67;1.60;;;9.80;99.90;;;;;;5076203;28;20295;-57
2022/11/24 02:49:33;;;;;;;9.27;1.80;;;9.90;99.90;;;;;;5075297;28;20228;-57
2022/11/24 02:52:01;;;;;;;6.50;1.80;;;9.90;99.90;;;;;;5075753;28;20232;-57
2022/11/24 02:54:28;;;;;;;5.80;2.00;;;9.90;99.90;;;;;;5076227;28;20213;-58
2022/11/24 02:56:55;;;;;;;6.90;1.80;;;10.00;99.90;;;;;;5075885;28;20209;-57
2022/11/24 02:59:22;;;;;;;7.50;1.93;;;10.00;99.90;;;;;;5075669;28;20208;-57
2022/11/24 03:01:50;;;;;;;6.17;1.80;;;9.90;99.90;;;;;;5075629;28;20806;-57
2022/11/24 03:04:17;;;;;;;5.73;1.83;;;9.70;99.90;;;;;;5075872;28;20228;-57
2022/11/24 03:06:44;;;;;;;7.57;1.93;;;9.50;99.90;;;;;;5075596;28;20597;-57
2022/11/24 03:09:11;;;;;;;7.67;2.10;;;9.40;99.90;;;;;;5074931;28;20723;-56
2022/11/24 03:11:38;;;;;;;5.47;2.20;;;9.20;99.90;;;;;;5075109;28;20232;-58
2022/11/24 03:14:05;;;;;;;7.37;1.87;;;9.10;99.90;;;;;;5076034;28;20201;-56
2022/11/24 03:16:33;;;;;;;5.20;1.70;;;9.00;99.90;;;;;;5075827;28;20295;-57
2022/11/24 03:19:01;;;;;;;5.67;1.73;;;8.90;99.90;;;;;;5075278;28;20205;-56
2022/11/24 03:21:28;;;;;;;5.67;1.43;;;8.90;99.90;;;;;;5075442;28;20237;-57
2022/11/24 03:23:55;;;;;;;5.30;1.60;;;8.80;99.90;;;;;;5076274;28;20255;-57
2022/11/24 03:26:24;;;;;;;4.90;1.50;;;8.80;99.90;;;;;;5075733;28;20297;-56
2022/11/24 03:28:54;;;;;;;7.93;1.77;;;8.80;99.90;;;;;;5075275;28;20734;-57
2022/11/24 03:31:22;;;;;;;5.90;1.57;;;8.80;99.90;;;;;;5075753;28;20232;-57
2022/11/24 03:33:49;;;;;;;4.73;1.50;;;8.80;99.90;;;;;;5075387;28;20387;-57
2022/11/24 03:36:17;;;;;;;4.17;1.37;;;8.80;99.90;;;;;;5075512;28;20665;-57
2022/11/24 03:38:44;;;;;;;5.90;1.53;;;9.00;99.90;;;;;;5075259;28;20244;-57
2022/11/24 03:41:11;;;;;;;6.47;1.30;;;9.20;99.90;;;;;;5075368;28;20231;-57
2022/11/24 03:43:38;;;;;;;4.10;1.20;;;9.30;99.90;;;;;;5075449;28;20231;-56
2022/11/24 03:46:05;;;;;;;4.60;1.30;;;9.40;99.90;;;;;;5075493;28;20205;-56
2022/11/24 03:48:32;;;;;;;4.57;1.40;;;9.40;99.90;;;;;;5075002;28;20262;-57
2022/11/24 03:51:01;;;;;;;6.10;1.90;;;9.40;99.90;;;;;;5075583;28;20638;-57
2022/11/24 03:53:32;;;;;;;5.37;1.40;;;9.30;99.90;;;;;;5076057;28;20240;-56
2022/11/24 03:55:59;;;;;;;4.87;1.60;;;9.30;99.90;;;;;;5075268;28;20205;-57
2022/11/24 03:58:26;;;;;;;4.97;1.47;;;9.40;99.90;;;;;;5075652;28;20205;-57
2022/11/24 04:00:54;;;;;;;3.83;1.17;;;9.40;99.90;;;;;;5075650;28;20201;-57
2022/11/24 04:03:21;;;;;;;4.23;1.63;;;9.50;99.90;;;;;;5076111;28;20734;-56
2022/11/24 04:05:48;;;;;;;4.30;1.43;;;9.50;99.90;;;;;;5076014;28;20233;-56
2022/11/24 04:08:16;;;;;;;4.43;1.73;;;9.50;99.90;;;;;;5075255;28;20296;-57
2022/11/24 04:10:44;;;;;;;3.40;1.53;;;9.60;99.90;;;;;;5075861;28;20227;-56
2022/11/24 04:13:12;;;;;;;3.83;1.30;;;9.70;99.90;;;;;;5076375;28;20320;-56
2022/11/24 04:15:40;;;;;;;5.87;1.93;;;9.70;99.90;;;;;;5075901;28;20246;-57
2022/11/24 04:18:07;;;;;;;3.33;1.30;;;9.70;99.90;;;;;;5076059;28;20291;-57
2022/11/24 04:20:34;;;;;;;6.07;1.60;;;9.80;99.90;;;;;;5076270;28;20561;-57
2022/11/24 04:23:01;;;;;;;4.10;1.37;;;9.80;99.90;;;;;;5075313;28;20232;-56
2022/11/24 04:25:29;;;;;;;4.93;1.43;;;9.80;99.90;;;;;;5075581;28;20232;-57
2022/11/24 04:27:58;;;;;;;4.27;1.23;;;9.90;99.90;;;;;;5075581;28;20667;-57
2022/11/24 04:30:26;;;;;;;4.40;1.57;;;9.90;99.90;;;;;;5075471;28;20215;-58
2022/11/24 04:32:53;;;;;;;5.63;1.50;;;9.90;99.90;;;;;;5074869;28;20233;-57
2022/11/24 04:35:21;;;;;;;5.17;1.40;;;9.90;99.90;;;;;;5075623;28;20258;-58
2022/11/24 04:37:48;;;;;;;6.73;1.87;;;9.90;99.90;;;;;;5074565;28;20239;-57
2022/11/24 04:40:15;;;;;;;9.50;1.90;;;9.90;99.90;;;;;;5074371;28;20269;-57
2022/11/24 04:42:42;;;;;;;5.90;1.67;;;9.90;99.90;;;;;;5074357;28;20326;-57
2022/11/24 04:45:11;;;;;;;4.27;1.50;;;10.00;99.90;;;;;;5074293;28;20708;-58
2022/11/24 04:47:38;;;;;;;7.03;1.73;;;10.10;99.90;;;;;;5074099;28;20236;-57
2022/11/24 04:50:06;;;;;;;6.47;1.97;;;10.20;99.90;;;;;;5073807;28;20205;-57
2022/11/24 04:52:33;;;;;;;4.67;1.43;;;10.20;99.90;;;;;;5073854;28;20271;-57
2022/11/24 04:55:00;;;;;;;4.67;2.00;;;10.20;99.90;;;;;;5073917;28;20299;-57
2022/11/24 04:57:27;;;;;;;7.70;1.97;;;10.20;99.90;;;;;;5074120;28;20209;-57
2022/11/24 04:59:55;;;;;;;9.03;2.80;;;10.20;99.90;;;;;;5073534;28;20201;-57
2022/11/24 05:02:23;;;;;;;6.90;1.80;;;10.20;99.90;;;;;;5074146;28;20228;-57
2022/11/24 05:04:51;;;;;;;4.13;1.77;;;10.20;99.90;;;;;;5073772;28;20282;-57
2022/11/24 05:07:18;;;;;;;6.10;2.03;;;10.30;99.90;;;;;;5073696;28;20235;-58
2022/11/24 05:12:30;;;;;;;6.97;2.63;;;10.10;99.90;;;;;;5073849;28;20578;-58
2022/11/24 05:14:58;;;;;;;7.63;2.80;;;10.10;99.90;;;;;;5073569;28;20288;-57
2022/11/24 05:17:29;;;;;;;5.57;1.57;;;10.00;99.90;;;;;;5073260;28;20205;-57
2022/11/24 05:19:56;;;;;;;15.97;6.30;;;10.00;99.90;;;;;;5072986;28;20189;-57
2022/11/24 05:22:24;;;;;;;10.63;3.53;;;10.00;99.90;;;;;;5073330;28;20638;-57
2022/11/24 05:24:51;;;;;;;4.67;1.57;;;10.10;99.90;;;;;;5073591;28;20235;-57
2022/11/24 05:27:18;;;;;;;7.30;1.87;;;10.00;99.90;;;;;;5073230;28;20234;-57
2022/11/24 05:29:45;;;;;;;6.37;1.90;;;10.10;99.90;;;;;;5072760;28;20209;-57
2022/11/24 05:32:12;;;;;;;5.17;2.23;;;10.00;99.90;;;;;;5072847;28;20290;-57
2022/11/24 05:34:40;;;;;;;5.87;1.63;;;10.10;99.90;;;;;;5073326;28;20205;-57
2022/11/24 05:37:07;;;;;;;6.67;2.07;;;10.20;99.90;;;;;;5073360;28;20295;-58
2022/11/24 05:39:34;;;;;;;5.63;1.70;;;10.30;99.90;;;;;;5073354;28;20221;-57
2022/11/24 05:42:39;;;;;;;5.63;1.80;;;10.40;99.90;;;;;;5073028;28;20236;-57
2022/11/24 05:44:50;;;;;;;5.50;2.10;;;10.40;99.90;;;;;;5072485;28;20641;-57
2022/11/24 05:47:17;;;;;;;7.77;1.90;;;10.30;99.90;;;;;;5072854;28;20677;-57
2022/11/24 05:49:45;;;;;;;6.37;1.70;;;10.30;99.90;;;;;;5072657;28;20204;-57
2022/11/24 05:52:12;;;;;;;7.10;2.60;;;10.40;99.90;;;;;;5072568;28;20260;-57
2022/11/24 05:54:39;;;;;;;4.83;1.70;;;10.30;99.90;;;;;;5072760;28;20676;-57
2022/11/24 05:57:06;;;;;;;4.73;2.07;;;10.30;99.90;;;;;;5072698;28;20674;-57
2022/11/24 05:59:33;;;;;;;7.57;2.30;;;10.30;99.90;;;;;;5071910;28;20877;-57
2022/11/24 06:02:00;;;;;;;7.97;2.40;;;10.30;99.90;;;;;;5072322;28;20220;-57
2022/11/24 06:04:27;;;;;;;8.17;2.87;;;10.30;99.90;;;;;;5073152;28;20224;-57
2022/11/24 06:06:56;;;;;;;8.70;2.70;;;10.30;99.90;;;;;;5072725;28;20207;-57
2022/11/24 06:09:22;;;;;;;8.80;2.50;;;10.20;99.90;;;;;;5073071;28;20266;-57
2022/11/24 06:11:49;;;;;;;5.43;1.80;;;10.10;99.90;;;;;;5072789;28;20708;-57
2022/11/24 06:14:16;;;;;;;9.07;2.53;;;10.10;99.90;;;;;;5073046;28;20296;-57
2022/11/24 06:16:43;;;;;;;7.20;1.80;;;10.00;99.90;;;;;;5072442;28;20204;-57
2022/11/24 06:19:11;;;;;;;8.47;2.33;;;10.00;99.90;;;;;;5073731;28;20223;-57
2022/11/24 06:21:38;;;;;;;7.47;2.00;;;10.00;99.90;;;;;;5076376;28;20625;-57
2022/11/24 06:24:07;;;;;;;12.07;2.20;;;9.90;99.90;;;;;;5076314;28;20209;-58
2022/11/24 06:26:34;;;;;;;6.10;2.10;;;9.90;99.90;;;;;;5076334;28;20605;-58
2022/11/24 06:29:01;;;;;;;6.17;1.77;;;9.90;99.90;;;;;;5076017;28;20208;-57
2022/11/24 06:31:28;;;;;;;8.57;2.30;;;10.00;99.90;;;;;;5076229;28;20221;-57
2022/11/24 06:33:55;;;;;;;8.37;2.20;;;10.10;99.90;;;;;;5076166;28;20240;-58
2022/11/24 06:36:22;;;;;;;9.37;2.40;;;10.10;99.90;;;;;;5075835;28;20304;-58
2022/11/24 06:38:49;;;;;;;5.53;2.10;;;10.10;99.90;;;;;;5075749;28;20244;-58
2022/11/24 06:41:17;;;;;;;11.17;2.30;;;10.20;99.90;;;;;;5076168;28;20631;-58
2022/11/24 06:43:46;;;;;;;9.43;2.40;;;10.20;99.90;;;;;;5075713;28;20205;-58
2022/11/24 06:46:13;;;;;;;6.77;1.80;;;10.20;99.90;;;;;;5075802;28;20264;-58
2022/11/24 06:48:40;;;;;;;9.07;2.30;;;10.30;99.90;;;;;;5075160;28;20287;-58
2022/11/24 06:51:10;;;;;;;8.57;2.00;;;10.30;99.90;;;;;;5075733;28;20204;-57
2022/11/24 06:53:37;;;;;;;9.67;1.83;;;10.30;99.90;;;;;;5075735;28;20212;-58
2022/11/24 06:56:06;;;;;;;8.63;2.27;;;10.50;99.90;;;;;;5075830;28;20631;-58
2022/11/24 06:58:35;;;;;;;8.53;2.00;;;10.50;99.90;;;;;;5075309;28;20211;-58
2022/11/24 07:01:02;;;;;;;7.60;2.23;;;10.60;99.90;;;;;;5075318;28;20288;-58
2022/11/24 07:03:29;;;;;;;7.50;3.00;;;10.70;99.90;;;;;;5075881;28;20580;-58
2022/11/24 07:05:57;;;;;;;7.23;2.23;;;10.70;99.90;;;;;;5075369;28;20239;-57
2022/11/24 07:08:24;;;;;;;6.97;1.90;;;10.80;99.90;;;;;;5075134;28;20204;-58
2022/11/24 07:10:51;;;;;;;10.93;2.20;;;10.80;99.90;;;;;;5075557;28;20262;-58
2022/11/24 07:13:19;;;;;;;8.67;2.67;;;10.80;99.90;;;;;;5075552;28;20224;-58
2022/11/24 07:15:47;;;;;;;8.57;2.20;;;10.80;99.90;;;;;;5075060;28;20233;-57
2022/11/24 07:18:14;;;;;;;9.73;2.43;;;10.80;99.90;;;;;;5075457;28;20205;-58
2022/11/24 07:20:41;;;;;;;8.73;2.50;;;10.90;99.90;;;;;;5074642;28;20218;-57
2022/11/24 07:23:08;;;;;;;6.90;2.50;;;10.90;99.90;;;;;;5076410;28;20250;-58
2022/11/24 07:25:35;;;;;;;8.27;2.10;;;10.90;99.90;;;;;;5075393;28;20221;-58
2022/11/24 07:28:02;;;;;;;12.43;2.37;;;10.80;99.90;;;;;;5075561;28;20617;-58
2022/11/24 07:30:29;;;;;;;7.43;2.20;;;10.80;99.90;;;;;;5074317;28;20274;-59
2022/11/24 07:33:00;;;;;;;8.37;2.13;;;10.70;99.90;;;;;;5075317;28;20259;-58
2022/11/24 07:35:28;;;;;;;8.60;1.80;;;10.70;99.90;;;;;;5075003;28;20208;-58
2022/11/24 07:37:55;;;;;;;10.00;2.00;;;10.70;99.90;;;;;;5075391;28;20626;-58
2022/11/24 07:40:23;;;;;;;6.43;1.80;;;10.60;99.90;;;;;;5074804;28;20205;-58
2022/11/24 07:42:49;;;;;;;11.27;4.17;;;10.60;99.90;;;;;;5074767;28;20319;-58
2022/11/24 07:45:16;;;;;;;7.83;2.00;;;10.60;99.90;;;;;;5075233;28;20228;-58
2022/11/24 07:47:43;;;;;;;9.13;2.17;;;10.60;99.90;;;;;;5074619;28;20208;-57
2022/11/24 07:50:12;;;;;;;11.93;2.57;;;10.60;99.90;;;;;;5074220;28;20211;-58
2022/11/24 07:52:39;;;;;;;7.47;2.10;;;10.60;99.90;;;;;;5074683;28;20235;-58
2022/11/24 07:55:07;;;;;;;6.80;2.43;;;10.60;99.90;;;;;;5074703;28;20205;-62
2022/11/24 07:57:34;;;;;;;13.60;2.43;;;10.70;99.90;;;;;;5074641;28;20251;-60
2022/11/24 08:00:01;;;;;;;8.53;2.03;;;10.70;99.90;;;;;;5075073;28;20228;-61
2022/11/24 08:02:28;;;;;;;9.37;2.53;;;10.70;99.90;;;;;;5064717;28;20230;-58
2022/11/24 08:04:54;;;;;;;8.83;2.43;;;10.70;99.90;;;;;;5057002;28;20193;-58
2022/11/24 08:07:23;;;;;;;6.80;2.30;;;10.80;99.90;;;;;;5072627;28;20254;-58
2022/11/24 08:09:51;;;;;;;7.93;2.63;;;10.80;99.90;;;;;;5072112;28;20243;-59
2022/11/24 08:12:20;;;;;;;12.87;3.23;;;10.70;99.90;;;;;;5072285;28;20221;-59
2022/11/24 08:14:48;;;;;;;9.17;2.27;;;10.70;99.90;;;;;;5072697;28;20666;-58
2022/11/24 08:17:15;;;;;;;7.67;2.50;;;10.70;99.90;;;;;;5072935;28;20212;-58
2022/11/24 08:19:41;;;;;;;9.53;2.30;;;10.60;99.90;;;;;;5072135;28;20213;-58
2022/11/24 08:22:08;;;;;;;6.00;1.93;;;10.60;99.90;;;;;;5072123;28;20322;-58
2022/11/24 08:24:37;;;;;;;6.97;2.43;;;10.50;99.90;;;;;;5072978;28;20216;-58
2022/11/24 08:27:04;;;;;;;9.57;2.40;;;10.50;99.90;;;;;;5072619;28;20566;-59
2022/11/24 08:29:31;;;;;;;7.67;2.80;;;10.60;99.90;;;;;;5072038;28;20212;-59
2022/11/24 08:31:58;;;;;;;6.93;2.47;;;10.70;99.90;;;;;;5072039;28;20393;-58
2022/11/24 08:34:25;;;;;;;6.67;2.27;;;10.70;99.90;;;;;;5073098;28;20296;-58
2022/11/24 08:36:52;;;;;;;9.30;2.90;;;10.80;99.90;;;;;;5072823;28;20430;-63
2022/11/24 08:39:19;;;;;;;6.40;2.30;;;10.90;99.90;;;;;;5073265;28;20589;-61
2022/11/24 08:41:47;;;;;;;6.33;2.40;;;11.00;99.90;;;;;;5071963;28;20884;-61
2022/11/24 08:44:17;;;;;;;8.53;2.23;;;11.00;99.90;;;;;;5072371;28;20692;-63
2022/11/24 08:46:43;;;;;;;6.03;1.90;;;11.10;99.90;;;;;;5073332;28;20267;-59
2022/11/24 08:49:12;;;;;;;5.33;1.50;;;11.20;99.90;;;;;;5051405;28;20209;-60
2022/11/24 08:51:39;;;;;;;7.80;1.87;;;11.30;99.90;;;;;;5067595;28;20221;-64
2022/11/24 08:54:09;;;;;;;9.23;2.53;;;11.30;99.90;;;;;;5066875;28;20686;-63
2022/11/24 08:56:36;;;;;;;7.33;2.20;;;11.40;99.90;;;;;;5053117;28;20299;-63
2022/11/24 08:59:04;;;;;;;5.10;1.70;;;11.50;99.90;;;;;;5052643;28;20206;-60
2022/11/24 09:01:31;;;;;;;5.07;1.90;;;11.50;99.90;;;;;;5052177;28;20236;-58
2022/11/24 09:03:58;;;;;;;4.93;1.50;;;11.50;99.90;;;;;;5051974;28;20217;-58
2022/11/24 09:06:26;;;;;;;3.43;1.90;;;11.40;99.90;;;;;;5051708;28;20772;-58
2022/11/24 09:08:54;;;;;;;7.53;1.87;;;11.30;99.90;;;;;;5050936;28;20214;-58
2022/11/24 09:11:22;;;;;;;6.00;1.83;;;11.20;99.90;;;;;;5052021;28;20861;-58
2022/11/24 09:13:49;;;;;;;7.37;3.10;;;11.20;99.90;;;;;;5051213;28;20209;-58
2022/11/24 09:16:19;;;;;;;5.70;1.50;;;11.20;99.90;;;;;;5051808;28;20206;-58
2022/11/24 09:18:46;;;;;;;5.07;1.80;;;11.20;99.90;;;;;;5050980;28;20208;-58
2022/11/24 09:21:15;;;;;;;7.53;1.50;;;11.30;99.90;;;;;;5051206;28;20232;-58
2022/11/24 09:23:42;;;;;;;7.63;2.00;;;11.50;99.90;;;;;;5050712;28;20210;-58
2022/11/24 09:26:11;;;;;;;4.87;1.60;;;11.60;99.90;;;;;;5051328;28;20236;-58
2022/11/24 09:28:39;;;;;;;3.00;1.23;;;11.60;99.90;;;;;;5051068;28;20293;-58
2022/11/24 09:31:08;;;;;;;4.93;1.60;;;11.70;99.90;;;;;;5051384;28;20206;-58
2022/11/24 09:33:37;;;;;;;3.97;1.70;;;11.80;99.90;;;;;;5050906;28;20217;-58
2022/11/24 09:36:05;;;;;;;4.63;1.27;;;12.20;99.90;;;;;;5051084;28;20201;-58
2022/11/24 09:38:32;;;;;;;5.97;1.50;;;12.40;99.90;;;;;;5051629;28;20571;-58
2022/11/24 09:41:19;;;;;;;3.83;1.43;;;12.60;99.90;;;;;;5051180;28;20209;-58
2022/11/24 09:43:51;;;;;;;3.43;1.27;;;12.80;99.90;;;;;;5050828;28;20209;-60
2022/11/24 09:46:22;;;;;;;6.30;1.37;;;12.90;99.90;;;;;;5050798;28;20693;-58
2022/11/24 09:48:55;;;;;;;3.97;1.33;;;13.00;99.90;;;;;;5050813;28;20237;-60
2022/11/24 09:51:27;;;;;;;4.80;1.80;;;13.00;99.90;;;;;;5051121;28;20232;-58
2022/11/24 09:53:59;;;;;;;3.67;1.60;;;13.00;99.90;;;;;;5050518;28;20304;-58
2022/11/24 09:56:28;;;;;;;3.17;1.20;;;13.00;99.90;;;;;;5051288;28;20205;-58
2022/11/24 09:59:01;;;;;;;3.93;1.03;;;12.90;99.90;;;;;;5049947;28;20673;-58
2022/11/24 10:01:31;;;;;;;3.20;1.03;;;12.80;99.90;;;;;;5051495;28;20233;-58
2022/11/24 10:03:59;;;;;;;5.33;1.00;;;12.80;99.90;;;;;;5050723;28;20209;-58
2022/11/24 10:06:29;;;;;;;1.80;1.10;;;12.80;99.90;;;;;;5051129;28;20225;-58
2022/11/24 10:09:21;;;;;;;1.30;0.90;;;12.70;99.90;;;;;;5050664;28;20208;-58
2022/11/24 10:11:58;;;;;;;3.40;1.20;;;12.70;99.90;;;;;;5050906;28;20229;-58
2022/11/24 10:14:49;;;;;;;3.63;1.03;;;12.80;99.90;;;;;;5050210;28;20287;-58
2022/11/24 10:17:28;;;;;;;5.03;1.10;;;12.80;99.90;;;;;;5050968;28;20284;-58
2022/11/24 10:20:04;;;;;;;2.83;1.73;;;12.90;99.90;;;;;;5050371;28;20232;-58
2022/11/24 10:22:41;;;;;;;3.17;1.30;;;12.90;99.90;;;;;;5050634;28;20244;-58
2022/11/24 10:25:15;;;;;;;0.90;0.40;;;13.00;99.90;;;;;;5050854;28;20288;-58
2022/11/24 10:27:44;;;;;;;3.23;0.87;;;12.90;99.90;;;;;;5050815;28;20319;-58
2022/11/24 10:30:17;;;;;;;2.23;0.57;;;13.00;99.90;;;;;;5050434;28;20209;-58
2022/11/24 10:32:47;;;;;;;2.10;1.00;;;13.00;99.90;;;;;;5050507;28;20312;-58
2022/11/24 10:35:18;;;;;;;0.70;0.60;;;13.00;99.90;;;;;;5050481;28;20201;-58
2022/11/24 10:37:54;;;;;;;2.27;0.70;;;13.00;99.90;;;;;;5051017;28;20202;-58
2022/11/24 10:40:32;;;;;;;1.13;0.40;;;13.00;99.90;;;;;;5050331;28;20301;-58
2022/11/24 10:42:59;;;;;;;1.20;0.83;;;13.10;99.90;;;;;;5050610;28;20229;-59
2022/11/24 10:45:28;;;;;;;2.13;0.67;;;13.30;99.90;;;;;;5051219;28;20457;-60
2022/11/24 10:47:55;;;;;;;1.20;0.57;;;13.40;99.90;;;;;;5050765;28;20584;-57
2022/11/24 10:50:25;;;;;;;2.63;0.90;;;13.50;99.90;;;;;;5050968;28;20296;-57
2022/11/24 10:53:00;;;;;;;1.53;0.60;;;13.70;99.90;;;;;;5050867;28;20245;-57
2022/11/24 10:55:49;;;;;;;1.07;0.60;;;13.90;99.90;;;;;;5050889;28;20692;-57
2022/11/24 10:58:16;;;;;;;1.90;0.83;;;14.10;99.90;;;;;;5050958;28;20240;-57
2022/11/24 11:00:43;;;;;;;1.80;0.90;;;14.40;99.90;;;;;;5050938;28;20206;-57
2022/11/24 11:03:16;;;;;;;1.50;0.90;;;14.70;99.90;;;;;;5051162;28;20221;-57
2022/11/24 11:05:48;;;;;;;3.80;1.30;;;14.70;99.90;;;;;;5053628;28;20212;-57
2022/11/24 11:08:21;;;;;;;3.07;0.70;;;14.70;99.90;;;;;;5055533;28;20215;-58
2022/11/24 11:11:11;;;;;;;1.63;0.90;;;14.80;99.90;;;;;;5054689;28;20228;-57
2022/11/24 11:13:38;;;;;;;2.53;1.27;;;14.80;99.90;;;;;;5055850;28;20300;-57
2022/11/24 11:16:24;;;;;;;3.00;0.90;;;14.60;99.90;;;;;;5055267;28;20206;-57
2022/11/24 11:18:51;;;;;;;1.90;0.93;;;14.50;99.90;;;;;;5056173;28;20681;-57
2022/11/24 11:21:31;;;;;;;3.17;0.90;;;14.30;99.90;;;;;;5056401;28;20233;-57
2022/11/24 11:24:00;;;;;;;1.03;0.60;;;13.90;99.90;;;;;;5055419;28;20296;-58
2022/11/24 11:26:36;;;;;;;1.17;0.60;;;13.50;99.90;;;;;;5055227;28;20220;-57
2022/11/24 11:29:14;;;;;;;2.67;0.87;;;13.30;99.90;;;;;;5057750;28;20204;-57
2022/11/24 11:31:41;;;;;;;2.43;0.80;;;13.20;99.90;;;;;;5058358;28;20239;-57
2022/11/24 11:34:15;;;;;;;3.10;0.90;;;13.20;99.90;;;;;;5057201;28;20284;-57
2022/11/24 11:36:46;;;;;;;1.60;1.03;;;13.20;99.90;;;;;;5057049;28;20244;-57
2022/11/24 11:39:28;;;;;;;2.97;1.00;;;13.30;99.90;;;;;;5056399;28;20245;-57
2022/11/24 11:42:10;;;;;;;3.03;1.37;;;13.40;99.90;;;;;;5056425;28;20255;-57
2022/11/24 11:44:41;;;;;;;2.40;0.90;;;13.60;99.90;;;;;;5055858;28;20286;-58
2022/11/24 11:47:18;;;;;;;4.10;1.40;;;13.80;99.90;;;;;;5055004;28;20221;-58
2022/11/24 11:49:47;;;;;;;2.23;0.77;;;13.80;99.90;;;;;;5053893;28;20220;-57
2022/11/24 11:52:41;;;;;;;2.10;0.90;;;13.80;99.90;;;;;;5054966;28;20225;-57
2022/11/24 11:55:35;;;;;;;4.30;1.03;;;14.00;99.90;;;;;;5054173;28;20640;-58
2022/11/24 11:58:18;;;;;;;3.03;0.90;;;14.20;99.90;;;;;;5053847;28;20201;-63
2022/11/24 12:00:51;;;;;;;2.90;0.83;;;14.40;99.90;;;;;;5052706;28;20213;-58
2022/11/24 12:03:46;;;;;;;3.30;1.00;;;14.60;99.90;;;;;;5053110;28;20208;-58
2022/11/24 12:06:27;;;;;;;1.67;0.77;;;14.80;99.90;;;;;;5052530;28;20689;-58
2022/11/24 12:09:07;;;;;;;2.87;0.80;;;14.90;99.90;;;;;;5052631;28;20211;-59
2022/11/24 12:11:38;;;;;;;3.57;1.07;;;15.00;99.90;;;;;;5053089;28;20233;-57
2022/11/24 12:14:12;;;;;;;1.43;0.80;;;14.90;99.90;;;;;;5051738;28;20209;-58
2022/11/24 12:16:47;;;;;;;3.67;0.90;;;14.90;99.90;;;;;;5053115;28;20201;-57
2022/11/24 12:19:30;;;;;;;2.43;1.10;;;14.90;99.90;;;;;;5053406;28;20299;-58
2022/11/24 12:22:07;;;;;;;2.93;1.27;;;14.80;99.90;;;;;;5053830;28;20234;-62
2022/11/24 12:24:44;;;;;;;4.67;1.50;;;14.60;99.90;;;;;;5053865;28;20205;-56
2022/11/24 12:27:23;;;;;;;3.40;1.13;;;14.60;99.90;;;;;;5054265;28;20287;-58
2022/11/24 12:30:10;;;;;;;4.07;1.53;;;14.50;99.90;;;;;;5053942;28;20201;-58
2022/11/24 12:33:04;;;;;;;3.17;1.00;;;14.40;99.90;;;;;;5054015;28;20278;-58
2022/11/24 12:35:37;;;;;;;3.43;1.30;;;14.30;99.90;;;;;;5053504;28;20213;-57
2022/11/24 12:38:15;;;;;;;4.73;1.73;;;14.30;99.90;;;;;;5052806;28;20240;-57
2022/11/24 12:41:03;;;;;;;8.77;2.93;;;14.30;99.90;;;;;;5052262;28;20585;-58
2022/11/24 12:43:34;;;;;;;3.33;1.30;;;14.30;99.90;;;;;;5052602;28;20205;-58
2022/11/24 12:46:08;;;;;;;8.50;2.90;;;14.20;99.90;;;;;;5052703;28;20676;-57
2022/11/24 12:48:53;;;;;;;3.87;1.40;;;14.10;99.90;;;;;;5053406;28;20201;-57
2022/11/24 12:51:27;;;;;;;5.20;1.67;;;14.10;99.90;;;;;;5053492;28;20222;-57
2022/11/24 12:53:57;;;;;;;6.00;1.40;;;14.20;99.90;;;;;;5054353;28;20307;-59
2022/11/24 12:56:32;;;;;;;7.00;2.00;;;14.20;99.90;;;;;;5055765;28;20276;-60
2022/11/24 12:59:11;;;;;;;4.63;1.47;;;14.20;99.90;;;;;;5054427;28;20212;-60
2022/11/24 13:01:42;;;;;;;8.33;2.70;;;14.20;99.90;;;;;;5056256;28;20232;-61
2022/11/24 13:04:18;;;;;;;6.40;1.93;;;14.10;99.90;;;;;;5056795;28;20288;-63
2022/11/24 13:06:52;;;;;;;6.07;1.90;;;14.00;99.90;;;;;;5056583;28;20225;-60